createdAt,value
2017-07-04T00:00:51.761Z,94.25
2017-07-04T00:01:51.751Z,94.25
2017-07-04T00:02:51.733Z,94.82
2017-07-04T00:03:51.720Z,94.82
2017-07-04T00:04:51.710Z,94.92
2017-07-04T00:05:51.701Z,94.73
2017-07-04T00:06:51.360Z,95.02
2017-07-04T00:07:51.667Z,94.64
2017-07-04T00:08:51.649Z,94.25
2017-07-04T00:09:51.632Z,94.06
2017-07-04T00:10:51.612Z,94.25
2017-07-04T00:11:51.620Z,94.06
2017-07-04T00:12:51.597Z,93.77
2017-07-04T00:13:51.590Z,93.77
2017-07-04T00:14:51.250Z,93.67
2017-07-04T00:15:51.545Z,93.38
2017-07-04T00:16:51.523Z,93.57
2017-07-04T00:17:51.512Z,93.96
2017-07-04T00:18:51.500Z,93.87
2017-07-04T00:19:51.490Z,94.44
2017-07-04T00:20:51.470Z,94.15
2017-07-04T00:21:51.452Z,94.01
2017-07-04T00:22:51.438Z,94.49
2017-07-04T00:23:51.430Z,94.4
2017-07-04T00:24:51.410Z,94.49
2017-07-04T00:25:51.419Z,94.68
2017-07-04T00:26:51.067Z,94.3
2017-07-04T00:27:51.062Z,94.3
2017-07-04T00:28:51.040Z,94.49
2017-07-04T00:29:51.343Z,94.78
2017-07-04T00:30:51.337Z,94.49
2017-07-04T00:31:51.321Z,94.2
2017-07-04T00:32:50.983Z,94.68
2017-07-04T00:33:51.289Z,95.55
2017-07-04T00:34:51.288Z,95.65
2017-07-04T00:35:51.253Z,95.94
2017-07-04T00:36:51.241Z,95.74
2017-07-04T00:37:51.223Z,95.74
2017-07-04T00:38:51.206Z,95.74
2017-07-04T00:39:51.195Z,95.65
2017-07-04T00:40:50.874Z,95.65
2017-07-04T00:41:50.849Z,95.55
2017-07-04T00:42:51.150Z,95.65
2017-07-04T00:43:50.824Z,95.65
2017-07-04T00:44:50.814Z,95.65
2017-07-04T00:45:50.790Z,95.94
2017-07-04T00:46:50.782Z,95.84
2017-07-04T00:47:51.140Z,95.94
2017-07-04T00:48:50.750Z,95.94
2017-07-04T00:49:50.850Z,95.45
2017-07-04T00:50:51.034Z,95.65
2017-07-04T00:51:51.045Z,95.74
2017-07-04T00:52:51.013Z,95.36
2017-07-04T00:53:50.687Z,96.12
2017-07-04T00:54:50.658Z,96.42
2017-07-04T00:55:50.762Z,96.8
2017-07-04T00:56:50.946Z,96.8
2017-07-04T00:57:50.627Z,96.8
2017-07-04T00:58:50.924Z,96.89
2017-07-04T00:59:50.915Z,97.28
2017-07-04T01:00:50.884Z,97.28
2017-07-04T01:01:50.872Z,97.19
2017-07-04T01:02:50.541Z,97.47
2017-07-04T01:03:50.530Z,97.47
2017-07-04T01:04:50.510Z,97.67
2017-07-04T01:05:50.810Z,97.38
2017-07-04T01:06:50.481Z,97.38
2017-07-04T01:07:50.470Z,97.57
2017-07-04T01:08:50.450Z,97.38
2017-07-04T01:09:50.450Z,97.38
2017-07-04T01:10:50.730Z,97.38
2017-07-04T01:11:50.720Z,97.67
2017-07-04T01:12:50.803Z,97.57
2017-07-04T01:13:50.689Z,97.67
2017-07-04T01:14:50.674Z,97.76
2017-07-04T01:15:50.664Z,97.96
2017-07-04T01:16:50.642Z,98.34
2017-07-04T01:17:50.652Z,98.44
2017-07-04T01:18:50.614Z,98.44
2017-07-04T01:19:50.290Z,98.54
2017-07-04T01:20:50.641Z,98.92
2017-07-04T01:21:50.580Z,98.68
2017-07-04T01:22:50.603Z,99.16
2017-07-04T01:23:50.542Z,99.06
2017-07-04T01:24:50.520Z,98.58
2017-07-04T01:25:50.507Z,98.68
2017-07-04T01:26:50.184Z,98.44
2017-07-04T01:27:50.484Z,98.82
2017-07-04T01:28:50.153Z,99.11
2017-07-04T01:29:50.139Z,99.59
2017-07-04T01:30:50.445Z,99.4
2017-07-04T01:31:50.430Z,99.99
2017-07-04T01:32:50.480Z,99.99
2017-07-04T01:33:50.382Z,99.93
2017-07-04T01:34:50.441Z,99.99
2017-07-04T01:35:50.371Z,99.99
2017-07-04T01:36:50.382Z,99.99
2017-07-04T01:37:50.341Z,99.99
2017-07-04T01:38:50.321Z,99.99
2017-07-04T01:39:50.300Z,99.99
2017-07-04T01:40:50.282Z,99.99
2017-07-04T01:41:50.264Z,99.99
2017-07-04T01:42:50.254Z,99.99
2017-07-04T01:43:49.934Z,99.99
2017-07-04T01:44:49.910Z,99.99
2017-07-04T01:45:50.209Z,99.99
2017-07-04T01:46:50.190Z,99.99
2017-07-04T01:47:49.873Z,99.99
2017-07-04T01:48:50.169Z,99.99
2017-07-04T01:49:50.150Z,99.99
2017-07-04T01:50:50.131Z,99.99
2017-07-04T01:51:50.119Z,99.99
2017-07-04T01:52:50.099Z,99.99
2017-07-04T01:53:50.082Z,99.99
2017-07-04T01:54:50.070Z,99.99
2017-07-04T01:55:50.063Z,99.99
2017-07-04T01:56:50.037Z,99.99
2017-07-04T01:57:49.729Z,99.99
2017-07-04T01:58:49.706Z,99.99
2017-07-04T01:59:49.686Z,99.99
2017-07-04T02:00:49.980Z,99.99
2017-07-04T02:01:49.968Z,99.99
2017-07-04T02:02:49.950Z,99.99
2017-07-04T02:03:49.934Z,99.99
2017-07-04T02:04:49.920Z,99.99
2017-07-04T02:05:49.592Z,99.99
2017-07-04T02:06:49.576Z,99.99
2017-07-04T02:07:49.561Z,99.99
2017-07-04T02:08:49.549Z,99.99
2017-07-04T02:09:49.833Z,99.99
2017-07-04T02:10:49.829Z,99.99
2017-07-04T02:11:49.501Z,99.99
2017-07-04T02:12:49.788Z,99.99
2017-07-04T02:13:49.782Z,99.99
2017-07-04T02:14:49.770Z,99.99
2017-07-04T02:15:49.440Z,99.99
2017-07-04T02:16:49.430Z,99.99
2017-07-04T02:17:49.411Z,99.99
2017-07-04T02:18:49.721Z,99.99
2017-07-04T02:19:49.381Z,99.99
2017-07-04T02:20:49.675Z,99.99
2017-07-04T02:21:49.350Z,99.99
2017-07-04T02:22:49.652Z,99.99
2017-07-04T02:23:49.631Z,99.99
2017-07-04T02:24:49.309Z,99.99
2017-07-04T02:25:49.598Z,99.99
2017-07-04T02:26:49.279Z,99.99
2017-07-04T02:27:49.570Z,99.99
2017-07-04T02:28:49.559Z,99.99
2017-07-04T02:29:49.539Z,99.99
2017-07-04T02:30:49.534Z,99.99
2017-07-04T02:31:49.201Z,99.99
2017-07-04T02:32:49.502Z,99.99
2017-07-04T02:33:49.169Z,99.99
2017-07-04T02:34:49.473Z,99.99
2017-07-04T02:35:49.133Z,99.99
2017-07-04T02:36:49.432Z,99.99
2017-07-04T02:37:49.117Z,99.99
2017-07-04T02:38:49.090Z,99.99
2017-07-04T02:39:49.393Z,99.99
2017-07-04T02:40:49.389Z,99.99
2017-07-04T02:41:49.359Z,99.99
2017-07-04T02:42:49.352Z,99.99
2017-07-04T02:43:49.022Z,99.99
2017-07-04T02:44:49.002Z,99.99
2017-07-04T02:45:49.299Z,99.99
2017-07-04T02:46:49.420Z,99.99
2017-07-04T02:47:49.266Z,99.99
2017-07-04T02:48:48.949Z,99.99
2017-07-04T02:49:49.231Z,99.99
2017-07-04T02:50:49.248Z,99.99
2017-07-04T02:51:48.897Z,99.99
2017-07-04T02:52:49.192Z,99.99
2017-07-04T02:53:49.189Z,99.99
2017-07-04T02:54:48.850Z,99.99
2017-07-04T02:55:49.145Z,99.99
2017-07-04T02:56:49.139Z,99.99
2017-07-04T02:57:49.239Z,99.99
2017-07-04T02:58:48.790Z,99.99
2017-07-04T02:59:49.082Z,99.99
2017-07-04T03:00:48.761Z,99.99
2017-07-04T03:01:49.052Z,99.99
2017-07-04T03:02:49.039Z,99.99
2017-07-04T03:03:49.024Z,99.99
2017-07-04T03:04:49.034Z,99.99
2017-07-04T03:05:48.994Z,99.99
2017-07-04T03:06:49.100Z,99.99
2017-07-04T03:07:48.648Z,99.99
2017-07-04T03:08:48.782Z,99.99
2017-07-04T03:09:48.619Z,99.99
2017-07-04T03:10:48.621Z,99.99
2017-07-04T03:11:48.588Z,99.99
2017-07-04T03:12:48.641Z,99.99
2017-07-04T03:13:48.921Z,99.99
2017-07-04T03:14:48.872Z,99.99
2017-07-04T03:15:48.529Z,99.99
2017-07-04T03:16:48.818Z,99.99
2017-07-04T03:17:48.499Z,99.99
2017-07-04T03:18:48.479Z,99.99
2017-07-04T03:19:48.785Z,99.99
2017-07-04T03:20:48.759Z,99.99
2017-07-04T03:21:48.812Z,99.99
2017-07-04T03:22:48.422Z,99.99
2017-07-04T03:23:48.409Z,99.99
2017-07-04T03:24:48.389Z,99.99
2017-07-04T03:25:48.388Z,99.99
2017-07-04T03:26:48.358Z,99.99
2017-07-04T03:27:48.350Z,99.99
2017-07-04T03:28:48.336Z,99.99
2017-07-04T03:29:48.319Z,99.99
2017-07-04T03:30:48.606Z,99.99
2017-07-04T03:31:48.599Z,99.99
2017-07-04T03:32:48.283Z,99.99
2017-07-04T03:33:48.251Z,99.99
2017-07-04T03:34:48.564Z,99.99
2017-07-04T03:35:48.541Z,99.99
2017-07-04T03:36:48.519Z,99.99
2017-07-04T03:37:48.190Z,99.99
2017-07-04T03:38:48.494Z,99.99
2017-07-04T03:39:48.512Z,99.99
2017-07-04T03:40:48.150Z,99.99
2017-07-04T03:41:48.449Z,99.99
2017-07-04T03:42:48.449Z,99.99
2017-07-04T03:43:48.462Z,99.99
2017-07-04T03:44:48.444Z,99.99
2017-07-04T03:45:48.381Z,99.99
2017-07-04T03:46:48.369Z,99.99
2017-07-04T03:47:48.348Z,99.99
2017-07-04T03:48:48.030Z,99.99
2017-07-04T03:49:48.322Z,99.99
2017-07-04T03:50:48.305Z,99.99
2017-07-04T03:51:48.285Z,99.99
2017-07-04T03:52:48.273Z,99.99
2017-07-04T03:53:47.947Z,99.99
2017-07-04T03:54:48.241Z,99.99
2017-07-04T03:55:48.240Z,99.99
2017-07-04T03:56:48.219Z,99.99
2017-07-04T03:57:48.195Z,99.99
2017-07-04T03:58:48.198Z,99.99
2017-07-04T03:59:47.870Z,99.99
2017-07-04T04:00:48.159Z,99.99
2017-07-04T04:01:47.823Z,99.99
2017-07-04T04:02:48.129Z,99.99
2017-07-04T04:03:48.126Z,99.99
2017-07-04T04:04:48.099Z,99.99
2017-07-04T04:05:48.069Z,99.99
2017-07-04T04:06:48.070Z,99.99
2017-07-04T04:07:48.050Z,99.99
2017-07-04T04:08:48.041Z,99.99
2017-07-04T04:09:48.016Z,99.99
2017-07-04T04:10:48.013Z,99.99
2017-07-04T04:11:47.992Z,99.99
2017-07-04T04:12:47.656Z,99.99
2017-07-04T04:13:47.969Z,99.99
2017-07-04T04:14:47.625Z,99.99
2017-07-04T04:15:47.933Z,99.99
2017-07-04T04:16:47.913Z,99.99
2017-07-04T04:17:47.894Z,99.99
2017-07-04T04:18:47.879Z,99.99
2017-07-04T04:19:47.550Z,99.99
2017-07-04T04:20:47.530Z,99.99
2017-07-04T04:21:47.519Z,99.99
2017-07-04T04:22:47.811Z,99.99
2017-07-04T04:23:47.805Z,99.99
2017-07-04T04:24:47.798Z,99.99
2017-07-04T04:25:47.780Z,99.99
2017-07-04T04:26:47.759Z,99.99
2017-07-04T04:27:47.428Z,99.99
2017-07-04T04:28:47.420Z,99.99
2017-07-04T04:29:47.714Z,99.99
2017-07-04T04:30:47.718Z,99.99
2017-07-04T04:31:47.689Z,99.99
2017-07-04T04:32:47.681Z,99.99
2017-07-04T04:33:47.366Z,99.99
2017-07-04T04:34:47.643Z,99.99
2017-07-04T04:35:47.309Z,99.99
2017-07-04T04:36:47.298Z,99.99
2017-07-04T04:37:47.404Z,99.99
2017-07-04T04:38:47.576Z,99.99
2017-07-04T04:39:47.691Z,99.99
2017-07-04T04:40:47.569Z,99.99
2017-07-04T04:41:47.330Z,99.99
2017-07-04T04:42:47.521Z,99.99
2017-07-04T04:43:47.505Z,99.99
2017-07-04T04:44:47.173Z,99.99
2017-07-04T04:45:47.590Z,99.99
2017-07-04T04:46:47.473Z,99.99
2017-07-04T04:47:47.257Z,99.99
2017-07-04T04:48:47.422Z,99.99
2017-07-04T04:49:47.109Z,99.99
2017-07-04T04:50:47.403Z,99.99
2017-07-04T04:51:47.069Z,99.99
2017-07-04T04:52:47.070Z,99.99
2017-07-04T04:53:47.436Z,99.99
2017-07-04T04:54:47.344Z,99.99
2017-07-04T04:55:47.022Z,99.99
2017-07-04T04:56:47.389Z,99.99
2017-07-04T04:57:47.344Z,99.99
2017-07-04T04:58:47.277Z,99.99
2017-07-04T04:59:47.053Z,99.99
2017-07-04T05:00:47.334Z,99.99
2017-07-04T05:01:47.322Z,99.99
2017-07-04T05:02:47.223Z,99.99
2017-07-04T05:03:46.895Z,99.99
2017-07-04T05:04:47.291Z,99.99
2017-07-04T05:05:47.190Z,99.99
2017-07-04T05:06:47.268Z,99.99
2017-07-04T05:07:47.193Z,99.99
2017-07-04T05:08:46.825Z,99.99
2017-07-04T05:09:47.244Z,99.99
2017-07-04T05:10:47.114Z,99.99
2017-07-04T05:11:47.096Z,99.99
2017-07-04T05:12:47.083Z,99.99
2017-07-04T05:13:47.109Z,99.99
2017-07-04T05:14:47.100Z,99.99
2017-07-04T05:15:46.726Z,99.99
2017-07-04T05:16:47.014Z,99.99
2017-07-04T05:17:46.993Z,99.99
2017-07-04T05:18:47.000Z,99.99
2017-07-04T05:19:46.973Z,99.99
2017-07-04T05:20:47.010Z,99.99
2017-07-04T05:21:46.933Z,99.99
2017-07-04T05:22:46.609Z,99.99
2017-07-04T05:23:46.922Z,99.99
2017-07-04T05:24:46.907Z,99.99
2017-07-04T05:25:46.886Z,99.99
2017-07-04T05:26:46.861Z,99.99
2017-07-04T05:27:46.862Z,99.99
2017-07-04T05:28:46.522Z,99.99
2017-07-04T05:29:46.820Z,99.99
2017-07-04T05:30:46.811Z,99.99
2017-07-04T05:31:46.478Z,99.99
2017-07-04T05:32:46.459Z,99.99
2017-07-04T05:33:46.817Z,99.99
2017-07-04T05:34:46.744Z,99.99
2017-07-04T05:35:46.729Z,99.99
2017-07-04T05:36:46.720Z,99.99
2017-07-04T05:37:46.703Z,99.99
2017-07-04T05:38:46.380Z,99.99
2017-07-04T05:39:46.358Z,99.99
2017-07-04T05:40:46.339Z,99.99
2017-07-04T05:41:46.642Z,99.99
2017-07-04T05:42:46.311Z,99.99
2017-07-04T05:43:46.312Z,99.99
2017-07-04T05:44:46.597Z,99.99
2017-07-04T05:45:46.605Z,99.99
2017-07-04T05:46:46.571Z,99.99
2017-07-04T05:47:46.558Z,99.99
2017-07-04T05:48:46.229Z,99.99
2017-07-04T05:49:46.218Z,99.99
2017-07-04T05:50:46.519Z,99.99
2017-07-04T05:51:46.184Z,99.99
2017-07-04T05:52:46.499Z,99.99
2017-07-04T05:53:46.498Z,99.99
2017-07-04T05:54:46.141Z,99.99
2017-07-04T05:55:46.423Z,99.99
2017-07-04T05:56:46.104Z,99.99
2017-07-04T05:57:46.422Z,99.99
2017-07-04T05:58:46.500Z,99.99
2017-07-04T05:59:46.389Z,99.99
2017-07-04T06:00:46.052Z,99.99
2017-07-04T06:01:46.077Z,99.99
2017-07-04T06:02:46.040Z,99.99
2017-07-04T06:03:46.322Z,99.99
2017-07-04T06:04:45.989Z,99.99
2017-07-04T06:05:46.297Z,99.99
2017-07-04T06:06:46.281Z,99.99
2017-07-04T06:07:46.266Z,99.99
2017-07-04T06:08:46.273Z,99.99
2017-07-04T06:09:45.922Z,99.99
2017-07-04T06:10:46.217Z,99.99
2017-07-04T06:11:45.885Z,99.99
2017-07-04T06:12:45.879Z,99.99
2017-07-04T06:13:46.173Z,99.99
2017-07-04T06:14:45.849Z,99.99
2017-07-04T06:15:45.830Z,99.99
2017-07-04T06:16:45.819Z,99.99
2017-07-04T06:17:45.855Z,99.99
2017-07-04T06:18:45.790Z,99.99
2017-07-04T06:19:45.775Z,99.99
2017-07-04T06:20:46.072Z,99.99
2017-07-04T06:21:46.069Z,99.99
2017-07-04T06:22:45.729Z,99.99
2017-07-04T06:23:46.031Z,99.99
2017-07-04T06:24:45.706Z,99.99
2017-07-04T06:25:45.994Z,99.99
2017-07-04T06:26:46.001Z,99.99
2017-07-04T06:27:45.969Z,99.99
2017-07-04T06:28:45.963Z,99.99
2017-07-04T06:29:45.630Z,99.99
2017-07-04T06:30:45.660Z,99.99
2017-07-04T06:31:45.597Z,99.99
2017-07-04T06:32:45.972Z,99.99
2017-07-04T06:33:45.887Z,99.99
2017-07-04T06:34:45.568Z,99.99
2017-07-04T06:35:45.541Z,99.99
2017-07-04T06:36:45.539Z,99.99
2017-07-04T06:37:45.831Z,99.99
2017-07-04T06:38:45.872Z,99.99
2017-07-04T06:39:45.798Z,99.99
2017-07-04T06:40:45.483Z,99.99
2017-07-04T06:41:45.448Z,99.99
2017-07-04T06:42:45.480Z,99.99
2017-07-04T06:43:45.750Z,99.99
2017-07-04T06:44:45.726Z,99.99
2017-07-04T06:45:45.720Z,99.99
2017-07-04T06:46:45.719Z,99.99
2017-07-04T06:47:45.685Z,99.99
2017-07-04T06:48:45.353Z,99.99
2017-07-04T06:49:45.340Z,99.99
2017-07-04T06:50:45.670Z,99.99
2017-07-04T06:51:45.621Z,99.99
2017-07-04T06:52:45.389Z,99.99
2017-07-04T06:53:45.640Z,99.99
2017-07-04T06:54:45.608Z,99.99
2017-07-04T06:55:45.593Z,99.99
2017-07-04T06:56:45.570Z,99.99
2017-07-04T06:57:45.599Z,99.99
2017-07-04T06:58:45.613Z,99.99
2017-07-04T06:59:45.553Z,99.99
2017-07-04T07:00:45.229Z,99.99
2017-07-04T07:01:45.160Z,99.99
2017-07-04T07:02:45.510Z,99.99
2017-07-04T07:03:45.459Z,99.99
2017-07-04T07:04:45.160Z,99.99
2017-07-04T07:05:45.464Z,99.99
2017-07-04T07:06:45.081Z,99.93
2017-07-04T07:07:45.069Z,99.93
2017-07-04T07:08:45.364Z,99.64
2017-07-04T07:09:45.349Z,99.93
2017-07-04T07:10:45.348Z,99.35
2017-07-04T07:11:45.327Z,99.44
2017-07-04T07:12:45.311Z,99.99
2017-07-04T07:13:45.372Z,99.78
2017-07-04T07:14:45.279Z,99.99
2017-07-04T07:15:44.958Z,99.99
2017-07-04T07:16:45.246Z,99.99
2017-07-04T07:17:45.239Z,99.99
2017-07-04T07:18:45.219Z,99.99
2017-07-04T07:19:45.199Z,99.99
2017-07-04T07:20:44.879Z,99.99
2017-07-04T07:21:45.172Z,99.99
2017-07-04T07:22:45.152Z,99.99
2017-07-04T07:23:45.154Z,99.99
2017-07-04T07:24:44.817Z,99.99
2017-07-04T07:25:44.806Z,99.99
2017-07-04T07:26:45.096Z,99.99
2017-07-04T07:27:45.086Z,99.88
2017-07-04T07:28:44.762Z,99.49
2017-07-04T07:29:44.753Z,99.88
2017-07-04T07:30:44.730Z,99.88
2017-07-04T07:31:44.711Z,99.99
2017-07-04T07:32:45.014Z,99.99
2017-07-04T07:33:44.692Z,99.99
2017-07-04T07:34:44.982Z,99.99
2017-07-04T07:35:44.658Z,99.99
2017-07-04T07:36:44.948Z,99.99
2017-07-04T07:37:44.629Z,99.99
2017-07-04T07:38:44.934Z,99.99
2017-07-04T07:39:44.912Z,99.99
2017-07-04T07:40:44.904Z,99.99
2017-07-04T07:41:44.888Z,99.99
2017-07-04T07:42:44.867Z,99.99
2017-07-04T07:43:44.542Z,99.99
2017-07-04T07:44:44.839Z,99.99
2017-07-04T07:45:44.831Z,99.99
2017-07-04T07:46:44.499Z,99.99
2017-07-04T07:47:44.805Z,99.99
2017-07-04T07:48:44.469Z,99.99
2017-07-04T07:49:44.460Z,99.99
2017-07-04T07:50:44.452Z,99.99
2017-07-04T07:51:44.740Z,99.99
2017-07-04T07:52:44.732Z,99.99
2017-07-04T07:53:44.717Z,99.99
2017-07-04T07:54:44.388Z,99.99
2017-07-04T07:55:44.680Z,99.99
2017-07-04T07:56:44.668Z,99.99
2017-07-04T07:57:44.658Z,99.99
2017-07-04T07:58:44.639Z,99.99
2017-07-04T07:59:44.643Z,99.99
2017-07-04T08:00:44.618Z,99.99
2017-07-04T08:01:44.595Z,99.99
2017-07-04T08:02:44.588Z,99.99
2017-07-04T08:03:44.565Z,99.99
2017-07-04T08:04:44.561Z,99.99
2017-07-04T08:05:44.256Z,99.99
2017-07-04T08:06:44.225Z,99.99
2017-07-04T08:07:44.519Z,99.99
2017-07-04T08:08:44.519Z,99.64
2017-07-04T08:09:44.487Z,99.54
2017-07-04T08:10:44.483Z,99.26
2017-07-04T08:11:44.460Z,99.44
2017-07-04T08:12:44.439Z,99.5
2017-07-04T08:13:44.447Z,99.79
2017-07-04T08:14:44.428Z,99.21
2017-07-04T08:15:44.400Z,98.34
2017-07-04T08:16:44.080Z,98.58
2017-07-04T08:17:44.368Z,97.72
2017-07-04T08:18:44.379Z,97.24
2017-07-04T08:19:44.409Z,97.14
2017-07-04T08:20:44.348Z,96.85
2017-07-04T08:21:44.335Z,96.37
2017-07-04T08:22:44.322Z,96.46
2017-07-04T08:23:43.989Z,95.69
2017-07-04T08:24:44.308Z,95.5
2017-07-04T08:25:43.964Z,95.4
2017-07-04T08:26:43.959Z,94.82
2017-07-04T08:27:44.239Z,95.02
2017-07-04T08:28:44.242Z,94.92
2017-07-04T08:29:44.242Z,95.4
2017-07-04T08:30:44.203Z,95.98
2017-07-04T08:31:44.198Z,95.69
2017-07-04T08:32:44.199Z,96.17
2017-07-04T08:33:44.225Z,95.59
2017-07-04T08:34:44.158Z,95.79
2017-07-04T08:35:44.143Z,95.02
2017-07-04T08:36:44.130Z,94.82
2017-07-04T08:37:43.816Z,95.5
2017-07-04T08:38:44.102Z,94.92
2017-07-04T08:39:43.819Z,95.21
2017-07-04T08:40:44.092Z,95.98
2017-07-04T08:41:44.059Z,95.69
2017-07-04T08:42:44.047Z,95.89
2017-07-04T08:43:43.721Z,95.74
2017-07-04T08:44:44.028Z,95.31
2017-07-04T08:45:44.013Z,94.34
2017-07-04T08:46:44.016Z,93.96
2017-07-04T08:47:43.981Z,92.99
2017-07-04T08:48:43.659Z,93.28
2017-07-04T08:49:43.639Z,94.1
2017-07-04T08:50:43.946Z,93.43
2017-07-04T08:51:43.619Z,93.81
2017-07-04T08:52:43.597Z,94.1
2017-07-04T08:53:43.898Z,94.2
2017-07-04T08:54:43.892Z,94.78
2017-07-04T08:55:43.882Z,94.06
2017-07-04T08:56:43.858Z,93.57
2017-07-04T08:57:43.853Z,92.51
2017-07-04T08:58:43.828Z,93.48
2017-07-04T08:59:43.815Z,93.09
2017-07-04T09:00:43.818Z,91.11
2017-07-04T09:01:43.478Z,90.72
2017-07-04T09:02:43.796Z,90.53
2017-07-04T09:03:43.454Z,89.76
2017-07-04T09:04:43.748Z,90.53
2017-07-04T09:05:43.441Z,90.72
2017-07-04T09:06:43.425Z,91.4
2017-07-04T09:07:43.430Z,91.06
2017-07-04T09:08:43.398Z,89.85
2017-07-04T09:09:43.381Z,89.47
2017-07-04T09:10:43.677Z,87.82
2017-07-04T09:11:43.670Z,87.73
2017-07-04T09:12:43.653Z,88.4
2017-07-04T09:13:43.640Z,87.73
2017-07-04T09:14:43.632Z,87.44
2017-07-04T09:15:43.639Z,88.79
2017-07-04T09:16:43.633Z,87.96
2017-07-04T09:17:43.607Z,88.45
2017-07-04T09:18:43.584Z,87.48
2017-07-04T09:19:43.260Z,86.61
2017-07-04T09:20:43.578Z,87.19
2017-07-04T09:21:43.543Z,86.94
2017-07-04T09:22:43.548Z,85.98
2017-07-04T09:23:43.217Z,84.43
2017-07-04T09:24:43.647Z,84.33
2017-07-04T09:25:43.498Z,83.66
2017-07-04T09:26:43.498Z,84.05
2017-07-04T09:27:43.507Z,84.43
2017-07-04T09:28:43.596Z,83.95
2017-07-04T09:29:43.149Z,84.91
2017-07-04T09:30:43.559Z,85.4
2017-07-04T09:31:43.644Z,81.67
2017-07-04T09:32:43.478Z,82.25
2017-07-04T09:33:43.112Z,82.06
2017-07-04T09:34:43.449Z,80.9
2017-07-04T09:35:43.398Z,79.93
2017-07-04T09:36:43.389Z,80.03
2017-07-04T09:37:43.370Z,80.12
2017-07-04T09:38:43.407Z,82.06
2017-07-04T09:39:43.415Z,80.9
2017-07-04T09:40:43.442Z,79.93
2017-07-04T09:41:43.327Z,79.93
2017-07-04T09:42:43.339Z,81.19
2017-07-04T09:43:43.369Z,80.55
2017-07-04T09:44:43.299Z,81.23
2017-07-04T09:45:42.978Z,79.33
2017-07-04T09:46:43.295Z,80.01
2017-07-04T09:47:43.280Z,80.2
2017-07-04T09:48:43.298Z,80.3
2017-07-04T09:49:43.266Z,80.3
2017-07-04T09:50:43.239Z,81.07
2017-07-04T09:51:43.225Z,81.85
2017-07-04T09:52:43.236Z,79.91
2017-07-04T09:53:42.897Z,78.36
2017-07-04T09:54:43.205Z,77.63
2017-07-04T09:55:43.228Z,78.02
2017-07-04T09:56:43.193Z,77.09
2017-07-04T09:57:43.178Z,78.25
2017-07-04T09:58:43.160Z,79.06
2017-07-04T09:59:43.155Z,79.3
2017-07-04T10:00:43.163Z,76.97
2017-07-04T10:01:43.142Z,76.14
2017-07-04T10:02:43.133Z,75.3
2017-07-04T10:03:43.129Z,73.16
2017-07-04T10:04:43.113Z,72.87
2017-07-04T10:05:43.117Z,72.67
2017-07-04T10:06:42.788Z,72.77
2017-07-04T10:07:43.095Z,73.46
2017-07-04T10:08:43.095Z,74.58
2017-07-04T10:09:43.095Z,75.03
2017-07-04T10:10:43.073Z,74.97
2017-07-04T10:11:42.748Z,74.84
2017-07-04T10:12:42.745Z,75.61
2017-07-04T10:13:43.049Z,75.09
2017-07-04T10:14:43.048Z,74.99
2017-07-04T10:15:43.034Z,74.54
2017-07-04T10:16:43.022Z,74.12
2017-07-04T10:17:43.069Z,75.96
2017-07-04T10:18:43.008Z,75.54
2017-07-04T10:19:42.990Z,74.66
2017-07-04T10:20:42.997Z,75.54
2017-07-04T10:21:42.987Z,75.31
2017-07-04T10:22:42.987Z,76.95
2017-07-04T10:23:42.963Z,77.63
2017-07-04T10:24:42.956Z,76.54
2017-07-04T10:25:42.950Z,75.81
2017-07-04T10:26:42.639Z,75.03
2017-07-04T10:27:42.940Z,74.77
2017-07-04T10:28:42.609Z,74.13
2017-07-04T10:29:42.917Z,74.04
2017-07-04T10:30:42.923Z,75.04
2017-07-04T10:31:42.895Z,73.97
2017-07-04T10:32:42.902Z,73.91
2017-07-04T10:33:42.570Z,72.85
2017-07-04T10:34:42.868Z,73.72
2017-07-04T10:35:42.884Z,72.17
2017-07-04T10:36:42.856Z,72.69
2017-07-04T10:37:42.851Z,71.72
2017-07-04T10:38:42.840Z,70.36
2017-07-04T10:39:42.841Z,71.52
2017-07-04T10:40:42.834Z,71.56
2017-07-04T10:41:42.511Z,70.97
2017-07-04T10:42:42.810Z,70.94
2017-07-04T10:43:42.816Z,71.39
2017-07-04T10:44:42.801Z,72.55
2017-07-04T10:45:42.801Z,72.75
2017-07-04T10:46:42.775Z,73.14
2017-07-04T10:47:42.771Z,73.2
2017-07-04T10:48:42.771Z,74.17
2017-07-04T10:49:42.764Z,74.04
2017-07-04T10:50:42.756Z,74.91
2017-07-04T10:51:42.739Z,73.94
2017-07-04T10:52:42.738Z,73.26
2017-07-04T10:53:42.729Z,73.22
2017-07-04T10:54:42.718Z,73.71
2017-07-04T10:55:42.718Z,73.42
2017-07-04T10:56:42.702Z,74.58
2017-07-04T10:57:42.720Z,75.23
2017-07-04T10:58:42.366Z,75.32
2017-07-04T10:59:42.685Z,75.23
2017-07-04T11:00:42.672Z,75.36
2017-07-04T11:01:42.672Z,76
2017-07-04T11:02:42.340Z,75.71
2017-07-04T11:03:42.638Z,74.93
2017-07-04T11:04:42.641Z,74.9
2017-07-04T11:05:42.313Z,75.77
2017-07-04T11:06:42.297Z,75.09
2017-07-04T11:07:42.301Z,74.64
2017-07-04T11:08:42.590Z,74.74
2017-07-04T11:09:42.270Z,75.28
2017-07-04T11:10:42.586Z,75.81
2017-07-04T11:11:42.559Z,76.45
2017-07-04T11:12:42.563Z,76.74
2017-07-04T11:13:42.553Z,76.93
2017-07-04T11:14:42.548Z,76.78
2017-07-04T11:15:42.527Z,74.84
2017-07-04T11:16:42.220Z,74.26
2017-07-04T11:17:42.505Z,73.67
2017-07-04T11:18:42.501Z,73.61
2017-07-04T11:19:42.180Z,73.58
2017-07-04T11:20:42.489Z,74.39
2017-07-04T11:21:42.470Z,74.13
2017-07-04T11:22:42.149Z,72.97
2017-07-04T11:23:42.483Z,72.52
2017-07-04T11:24:42.130Z,73.3
2017-07-04T11:25:42.446Z,72.71
2017-07-04T11:26:42.429Z,72.23
2017-07-04T11:27:42.104Z,72.81
2017-07-04T11:28:42.340Z,71.06
2017-07-04T11:29:42.410Z,71.94
2017-07-04T11:30:42.393Z,71.45
2017-07-04T11:31:42.393Z,71.55
2017-07-04T11:32:42.070Z,71.94
2017-07-04T11:33:42.049Z,71.74
2017-07-04T11:34:42.053Z,72.77
2017-07-04T11:35:42.357Z,73.36
2017-07-04T11:36:42.343Z,73.68
2017-07-04T11:37:42.021Z,72.94
2017-07-04T11:38:42.014Z,70.9
2017-07-04T11:39:42.318Z,71.1
2017-07-04T11:40:42.317Z,71.58
2017-07-04T11:41:42.305Z,71.68
2017-07-04T11:42:42.309Z,71.48
2017-07-04T11:43:42.013Z,71
2017-07-04T11:44:42.290Z,71.68
2017-07-04T11:45:42.266Z,71.62
2017-07-04T11:46:41.940Z,71.78
2017-07-04T11:47:42.270Z,71.48
2017-07-04T11:48:42.250Z,70.71
2017-07-04T11:49:41.928Z,71.78
2017-07-04T11:50:42.244Z,70.61
2017-07-04T11:51:42.303Z,71.2
2017-07-04T11:52:42.220Z,71.13
2017-07-04T11:53:42.263Z,71.13
2017-07-04T11:54:41.881Z,71.81
2017-07-04T11:55:41.952Z,69.32
2017-07-04T11:56:42.176Z,68.29
2017-07-04T11:57:42.271Z,68.96
2017-07-04T11:58:41.853Z,70.23
2017-07-04T11:59:41.829Z,69.74
2017-07-04T12:00:42.355Z,69.94
2017-07-04T12:01:41.934Z,69.65
2017-07-04T12:02:42.121Z,69.97
2017-07-04T12:03:42.115Z,68.61
2017-07-04T12:04:41.795Z,68.41
2017-07-04T12:05:42.109Z,68.51
2017-07-04T12:06:42.101Z,67.6
2017-07-04T12:07:42.091Z,68.19
2017-07-04T12:08:41.764Z,68.35
2017-07-04T12:09:42.067Z,69.03
2017-07-04T12:10:42.053Z,68.93
2017-07-04T12:11:42.052Z,69.51
2017-07-04T12:12:42.047Z,68.87
2017-07-04T12:13:42.019Z,68.54
2017-07-04T12:14:41.709Z,68.35
2017-07-04T12:15:41.701Z,69.61
2017-07-04T12:16:42.003Z,67.96
2017-07-04T12:17:42.013Z,69.13
2017-07-04T12:18:41.997Z,69.87
2017-07-04T12:19:41.673Z,68.84
2017-07-04T12:20:41.994Z,69.13
2017-07-04T12:21:41.976Z,69.03
2017-07-04T12:22:41.955Z,69.9
2017-07-04T12:23:41.661Z,70.45
2017-07-04T12:24:41.670Z,70.16
2017-07-04T12:25:41.631Z,70.55
2017-07-04T12:26:41.925Z,71.2
2017-07-04T12:27:41.600Z,70.71
2017-07-04T12:28:41.919Z,70.71
2017-07-04T12:29:41.589Z,70.51
2017-07-04T12:30:41.582Z,69.51
2017-07-04T12:31:41.889Z,70.57
2017-07-04T12:32:41.969Z,71.51
2017-07-04T12:33:41.875Z,71.58
2017-07-04T12:34:41.669Z,71.28
2017-07-04T12:35:41.530Z,71.42
2017-07-04T12:36:41.939Z,71.61
2017-07-04T12:37:41.838Z,72.09
2017-07-04T12:38:41.591Z,72.03
2017-07-04T12:39:41.920Z,71.42
2017-07-04T12:40:41.904Z,72.39
2017-07-04T12:41:41.790Z,72.09
2017-07-04T12:42:41.789Z,70.48
2017-07-04T12:43:41.838Z,71.06
2017-07-04T12:44:41.777Z,71.64
2017-07-04T12:45:41.762Z,71.2
2017-07-04T12:46:41.817Z,71.39
2017-07-04T12:47:41.766Z,70.71
2017-07-04T12:48:41.469Z,69.96
2017-07-04T12:49:41.732Z,69.67
2017-07-04T12:50:41.729Z,69.81
2017-07-04T12:51:41.388Z,68.57
2017-07-04T12:52:41.690Z,67.99
2017-07-04T12:53:41.703Z,67.21
2017-07-04T12:54:41.378Z,67.76